createdAt,value
2023-03-19T00:01:08.906Z,88.90
2023-03-19T00:03:36.664Z,88.90
2023-03-19T00:06:04.532Z,89.10
2023-03-19T00:08:31.891Z,89.30
2023-03-19T00:10:59.405Z,89.90
2023-03-19T00:13:29.802Z,89.70
2023-03-19T00:15:59.058Z,89.60
2023-03-19T00:18:26.464Z,89.90
2023-03-19T00:20:56.110Z,89.80
2023-03-19T00:23:23.646Z,89.70
2023-03-19T00:25:51.228Z,90.40
2023-03-19T00:28:18.660Z,90.10
2023-03-19T00:30:45.978Z,90.10
2023-03-19T00:33:13.460Z,90.20
2023-03-19T00:35:41.551Z,90.10
2023-03-19T00:38:09.992Z,90.20
2023-03-19T00:40:37.491Z,90.20
2023-03-19T00:43:05.002Z,90.10
2023-03-19T00:45:32.802Z,90.10
2023-03-19T00:48:00.499Z,90.20
2023-03-19T00:50:28.114Z,90.20
2023-03-19T00:52:55.832Z,90.30
2023-03-19T00:55:32.193Z,90.20
2023-03-19T00:57:59.821Z,90.20
2023-03-19T01:00:27.780Z,90.40
2023-03-19T01:02:55.326Z,90.30
2023-03-19T01:05:22.729Z,90.20
2023-03-19T01:07:51.009Z,90.30
2023-03-19T01:10:22.333Z,90.20
2023-03-19T01:12:51.002Z,90.30
2023-03-19T01:15:19.672Z,90.40
2023-03-19T01:17:47.852Z,90.50
2023-03-19T01:20:19.210Z,90.60
2023-03-19T01:22:46.946Z,90.70
2023-03-19T01:25:14.780Z,90.40
2023-03-19T01:27:52.610Z,90.60
2023-03-19T01:30:20.968Z,90.50
2023-03-19T01:33:15.355Z,91.00
2023-03-19T01:36:04.992Z,90.60
2023-03-19T01:38:56.333Z,90.70
2023-03-19T01:41:27.630Z,90.90
2023-03-19T01:44:02.010Z,91.00
2023-03-19T01:46:39.999Z,91.20
2023-03-19T01:49:27.977Z,90.90
2023-03-19T01:52:13.838Z,91.00
2023-03-19T01:55:20.228Z,91.00
2023-03-19T01:58:09.089Z,91.20
2023-03-19T02:00:58.495Z,91.00
2023-03-19T02:03:27.397Z,91.10
2023-03-19T02:06:06.486Z,91.40
2023-03-19T02:08:36.026Z,91.40
2023-03-19T02:11:03.650Z,91.40
2023-03-19T02:13:31.299Z,91.50
2023-03-19T02:16:00.390Z,91.70
2023-03-19T02:18:28.695Z,91.50
2023-03-19T02:21:22.317Z,91.50
2023-03-19T02:24:06.566Z,91.50
2023-03-19T02:26:51.773Z,91.60
2023-03-19T02:29:19.229Z,91.80
2023-03-19T02:31:47.639Z,91.80
2023-03-19T02:34:21.396Z,91.90
2023-03-19T02:36:57.807Z,91.70
2023-03-19T02:39:38.806Z,92.00
2023-03-19T02:42:11.619Z,92.00
2023-03-19T02:44:39.289Z,92.10
2023-03-19T02:47:06.978Z,92.30
2023-03-19T02:49:34.495Z,92.20
2023-03-19T02:52:02.134Z,92.10
2023-03-19T02:54:29.647Z,92.20
2023-03-19T02:56:57.278Z,92.20
2023-03-19T02:59:24.772Z,92.20
2023-03-19T03:01:55.553Z,92.30
2023-03-19T03:04:23.750Z,92.30
2023-03-19T03:06:51.275Z,92.30
2023-03-19T03:09:19.882Z,92.50
2023-03-19T03:11:47.302Z,92.10
2023-03-19T03:14:17.662Z,92.50
2023-03-19T03:16:45.609Z,92.60
2023-03-19T03:19:13.789Z,92.70
2023-03-19T03:21:42.700Z,92.70
2023-03-19T03:24:11.216Z,92.80
2023-03-19T03:26:39.138Z,92.90
2023-03-19T03:29:07.353Z,92.90
2023-03-19T03:31:37.531Z,92.90
2023-03-19T03:34:05.237Z,93.00
2023-03-19T03:36:32.785Z,93.50
2023-03-19T03:39:04.368Z,93.20
2023-03-19T03:41:32.298Z,93.20
2023-03-19T03:44:01.549Z,93.40
2023-03-19T03:46:40.046Z,93.50
2023-03-19T03:49:07.611Z,93.60
2023-03-19T03:51:34.965Z,93.50
2023-03-19T03:54:02.734Z,93.30
2023-03-19T03:56:31.582Z,93.10
2023-03-19T03:58:59.188Z,93.30
2023-03-19T04:01:29.179Z,93.50
2023-03-19T04:03:59.934Z,93.50
2023-03-19T04:06:30.255Z,93.40
2023-03-19T04:09:12.237Z,93.40
2023-03-19T04:11:41.317Z,93.50
2023-03-19T04:14:08.972Z,93.40
2023-03-19T04:16:39.012Z,93.50
2023-03-19T04:19:08.024Z,93.40
2023-03-19T04:21:35.561Z,93.60
2023-03-19T04:24:12.187Z,93.60
2023-03-19T04:26:40.025Z,93.60
2023-03-19T04:29:10.779Z,93.70
2023-03-19T04:31:38.425Z,93.40
2023-03-19T04:34:06.095Z,93.60
2023-03-19T04:36:33.850Z,93.60
2023-03-19T04:39:01.356Z,93.50
2023-03-19T04:41:29.079Z,93.60
2023-03-19T04:44:24.322Z,93.70
2023-03-19T04:46:51.785Z,93.70
2023-03-19T04:49:21.470Z,93.60
2023-03-19T04:51:50.231Z,93.70
2023-03-19T04:54:18.029Z,93.80
2023-03-19T04:56:48.442Z,93.70
2023-03-19T04:59:20.994Z,93.80
2023-03-19T05:01:50.171Z,93.90
2023-03-19T05:04:21.573Z,93.90
2023-03-19T05:06:50.507Z,94.30
2023-03-19T05:09:18.364Z,94.00
2023-03-19T05:11:45.856Z,94.10
2023-03-19T05:14:19.994Z,94.10
2023-03-19T05:17:01.910Z,94.30
2023-03-19T05:19:39.738Z,94.00
2023-03-19T05:22:11.903Z,94.20
2023-03-19T05:24:39.718Z,94.20
2023-03-19T05:27:08.757Z,94.50
2023-03-19T05:30:16.153Z,94.50
2023-03-19T05:33:05.409Z,94.20
2023-03-19T05:35:38.120Z,94.20
2023-03-19T05:38:12.592Z,94.30
2023-03-19T05:40:43.272Z,94.40
2023-03-19T05:43:21.500Z,94.40
2023-03-19T05:45:53.273Z,94.50
2023-03-19T05:48:26.358Z,94.50
2023-03-19T05:50:54.281Z,94.40
2023-03-19T05:53:23.403Z,94.30
2023-03-19T05:56:26.516Z,94.70
2023-03-19T05:59:12.656Z,94.60
2023-03-19T06:01:44.340Z,94.50
2023-03-19T06:04:15.073Z,94.50
2023-03-19T06:06:45.716Z,94.40
2023-03-19T06:09:13.304Z,94.30
2023-03-19T06:11:46.144Z,94.00
2023-03-19T06:14:35.047Z,93.70
2023-03-19T06:17:32.397Z,93.20
2023-03-19T06:20:04.794Z,93.10
2023-03-19T06:22:32.282Z,92.90
2023-03-19T06:25:00.258Z,92.50
2023-03-19T06:27:28.361Z,92.30
2023-03-19T06:30:09.306Z,92.40
2023-03-19T06:32:37.583Z,91.80
2023-03-19T06:35:11.430Z,91.60
2023-03-19T06:37:39.972Z,91.10
2023-03-19T06:40:10.739Z,90.70
2023-03-19T06:42:38.587Z,90.60
2023-03-19T06:45:07.833Z,90.50
2023-03-19T06:47:35.363Z,90.10
2023-03-19T06:50:03.047Z,89.40
2023-03-19T06:52:31.529Z,88.70
2023-03-19T06:55:01.232Z,87.70
2023-03-19T06:57:28.524Z,88.00
2023-03-19T06:59:56.008Z,86.50
2023-03-19T07:02:23.519Z,86.20
2023-03-19T07:04:51.062Z,85.40
2023-03-19T07:07:19.251Z,84.70
2023-03-19T07:09:46.684Z,84.10
2023-03-19T07:12:16.625Z,83.00
2023-03-19T07:14:44.414Z,82.90
2023-03-19T07:17:11.797Z,82.80
2023-03-19T07:19:44.125Z,82.60
2023-03-19T07:22:11.973Z,80.90
2023-03-19T07:24:39.353Z,79.70
2023-03-19T07:27:06.784Z,79.80
2023-03-19T07:29:34.147Z,79.20
2023-03-19T07:32:01.663Z,78.10
2023-03-19T07:34:29.166Z,77.80
2023-03-19T07:36:56.905Z,76.90
2023-03-19T07:39:24.127Z,76.00
2023-03-19T07:41:56.437Z,75.80
2023-03-19T07:44:24.401Z,76.20
2023-03-19T07:46:51.877Z,75.30
2023-03-19T07:49:19.263Z,76.00
2023-03-19T07:51:46.652Z,75.80
2023-03-19T07:54:14.210Z,75.20
2023-03-19T07:56:41.460Z,74.80
2023-03-19T07:59:09.196Z,74.60
2023-03-19T08:01:36.609Z,74.20
2023-03-19T08:04:04.223Z,73.50
2023-03-19T08:06:38.851Z,73.70
2023-03-19T08:09:07.118Z,72.90
2023-03-19T08:11:34.419Z,72.10
2023-03-19T08:14:02.363Z,72.40
2023-03-19T08:16:29.716Z,71.50
2023-03-19T08:18:57.145Z,71.50
2023-03-19T08:21:24.465Z,70.90
2023-03-19T08:23:52.803Z,71.40
2023-03-19T08:26:20.154Z,70.50
2023-03-19T08:28:47.437Z,70.20
2023-03-19T08:31:15.128Z,69.60
2023-03-19T08:33:42.578Z,70.20
2023-03-19T08:36:12.296Z,69.70
2023-03-19T08:38:40.038Z,69.20
2023-03-19T08:41:09.224Z,68.70
2023-03-19T08:43:39.255Z,68.30
2023-03-19T08:46:06.947Z,68.30
2023-03-19T08:48:34.430Z,68.20
2023-03-19T08:51:03.568Z,67.80
2023-03-19T08:53:31.872Z,66.80
2023-03-19T08:56:04.581Z,66.40
2023-03-19T08:58:35.044Z,67.00
2023-03-19T09:01:03.728Z,67.00
2023-03-19T09:03:32.187Z,66.20
2023-03-19T09:06:01.497Z,64.90
2023-03-19T09:08:31.011Z,64.00
2023-03-19T09:10:59.282Z,63.70
2023-03-19T09:13:29.385Z,63.90
2023-03-19T09:15:58.663Z,63.80
2023-03-19T09:18:26.152Z,64.00
2023-03-19T09:20:54.357Z,63.50
2023-03-19T09:23:22.430Z,64.20
2023-03-19T09:25:50.129Z,62.90
2023-03-19T09:28:21.006Z,62.80
2023-03-19T09:30:49.741Z,62.50
2023-03-19T09:33:19.134Z,61.30
2023-03-19T09:35:52.981Z,62.40
2023-03-19T09:38:26.199Z,62.00
2023-03-19T09:41:10.302Z,62.00
2023-03-19T09:43:56.677Z,62.20
2023-03-19T09:46:32.767Z,61.70
2023-03-19T09:49:09.127Z,61.00
2023-03-19T09:51:41.866Z,60.40
2023-03-19T09:54:27.440Z,61.20
2023-03-19T09:56:56.002Z,60.00
2023-03-19T09:59:25.185Z,60.40
2023-03-19T10:02:29.350Z,59.30
2023-03-19T10:05:19.124Z,60.00
2023-03-19T10:08:11.347Z,59.20
2023-03-19T10:10:50.878Z,58.50
2023-03-19T10:13:55.498Z,58.20
2023-03-19T10:16:26.562Z,59.20
2023-03-19T10:18:58.707Z,59.10
2023-03-19T10:21:45.145Z,58.80
2023-03-19T10:24:34.691Z,58.40
2023-03-19T10:27:10.910Z,58.40
2023-03-19T10:29:40.029Z,58.90
2023-03-19T10:32:09.383Z,58.00
2023-03-19T10:34:43.434Z,58.40
2023-03-19T10:37:17.352Z,57.60
2023-03-19T10:39:46.489Z,58.90
2023-03-19T10:42:41.762Z,57.60
2023-03-19T10:45:29.157Z,58.90
2023-03-19T10:47:57.745Z,58.10
2023-03-19T10:50:48.398Z,58.40
2023-03-19T10:53:15.729Z,57.10
2023-03-19T10:55:54.146Z,57.00
2023-03-19T10:58:28.908Z,57.50
2023-03-19T11:00:59.385Z,57.40
2023-03-19T11:03:33.011Z,56.90
2023-03-19T11:06:11.088Z,56.70
2023-03-19T11:08:39.144Z,56.50
2023-03-19T11:11:06.585Z,56.10
2023-03-19T11:13:36.342Z,55.90
2023-03-19T11:16:10.935Z,55.80
2023-03-19T11:18:40.398Z,55.20
2023-03-19T11:21:29.804Z,55.00
2023-03-19T11:24:03.491Z,54.70
2023-03-19T11:26:31.433Z,54.80
2023-03-19T11:29:09.268Z,55.30
2023-03-19T11:31:39.747Z,53.70
2023-03-19T11:34:50.286Z,55.00
2023-03-19T11:37:33.628Z,54.20
2023-03-19T11:40:17.825Z,54.50
2023-03-19T11:43:03.934Z,55.10
2023-03-19T11:46:05.293Z,55.30
2023-03-19T11:48:47.957Z,53.70
2023-03-19T11:51:31.027Z,53.40
2023-03-19T11:54:04.611Z,54.00
2023-03-19T11:56:42.432Z,53.30
2023-03-19T11:59:24.089Z,54.60
2023-03-19T12:02:16.252Z,54.00
2023-03-19T12:04:59.551Z,53.80
2023-03-19T12:07:32.877Z,52.90
2023-03-19T12:10:33.768Z,54.00
2023-03-19T12:13:11.090Z,53.60
2023-03-19T12:16:01.883Z,52.30
2023-03-19T12:18:41.101Z,53.70
2023-03-19T12:21:50.825Z,52.10
2023-03-19T12:24:26.202Z,51.40
2023-03-19T12:27:22.314Z,53.40
2023-03-19T12:30:07.226Z,52.60
2023-03-19T12:32:46.643Z,52.60
2023-03-19T12:35:24.698Z,52.30
2023-03-19T12:38:00.882Z,53.60
2023-03-19T12:40:45.865Z,53.20
2023-03-19T12:43:33.782Z,53.30
2023-03-19T12:46:18.859Z,53.40
2023-03-19T12:48:53.006Z,53.40
2023-03-19T12:51:26.839Z,53.50
2023-03-19T12:54:09.826Z,53.90
2023-03-19T12:56:55.845Z,53.30
2023-03-19T12:59:48.289Z,52.40
2023-03-19T13:02:22.553Z,52.10
2023-03-19T13:15:05.115Z,52.10
2023-03-19T13:26:55.263Z,51.20
2023-03-19T14:15:53.238Z,52.30
2023-03-19T15:56:25.639Z,55.90
2023-03-19T15:58:58.704Z,56.70
2023-03-19T16:01:36.161Z,56.70
2023-03-19T16:04:11.289Z,56.90
2023-03-19T16:06:40.570Z,56.80
2023-03-19T16:09:37.074Z,57.20
2023-03-19T16:12:26.746Z,57.70
2023-03-19T16:14:55.012Z,57.80
2023-03-19T16:17:34.272Z,57.80
2023-03-19T16:20:07.966Z,58.20
2023-03-19T16:22:36.950Z,58.10
2023-03-19T16:25:12.543Z,58.40
2023-03-19T16:28:00.519Z,58.80
2023-03-19T16:30:31.470Z,59.10
2023-03-19T16:33:05.400Z,59.40
2023-03-19T16:35:39.706Z,59.80
2023-03-19T16:38:26.586Z,60.10
2023-03-19T16:41:33.154Z,60.10
2023-03-19T16:44:21.811Z,60.70
2023-03-19T16:46:49.993Z,61.10
2023-03-19T16:49:21.585Z,61.20
2023-03-19T16:51:50.387Z,61.40
2023-03-19T16:54:18.744Z,62.10
2023-03-19T16:56:47.362Z,62.70
2023-03-19T16:59:30.266Z,62.90
2023-03-19T17:02:19.522Z,63.60
2023-03-19T17:04:48.356Z,63.50
2023-03-19T17:07:18.136Z,63.10
2023-03-19T17:09:47.234Z,63.30
2023-03-19T17:12:18.332Z,65.10
2023-03-19T17:14:49.922Z,64.70
2023-03-19T17:17:22.844Z,65.30
2023-03-19T17:19:53.287Z,65.00
2023-03-19T17:22:21.485Z,64.80
2023-03-19T17:24:50.663Z,65.90
2023-03-19T17:27:21.646Z,66.10
2023-03-19T17:29:50.576Z,65.60
2023-03-19T17:32:22.263Z,64.90
2023-03-19T17:34:51.031Z,65.00
2023-03-19T17:37:19.512Z,65.10
2023-03-19T17:39:48.700Z,65.90
2023-03-19T17:42:20.921Z,67.50
2023-03-19T17:44:49.718Z,66.90
2023-03-19T17:47:21.888Z,67.30
2023-03-19T17:49:50.714Z,67.80
2023-03-19T17:52:20.765Z,68.40
2023-03-19T17:54:49.142Z,69.50
2023-03-19T17:57:19.442Z,68.80
2023-03-19T17:59:48.478Z,69.50
2023-03-19T18:02:29.482Z,69.60
2023-03-19T18:04:59.357Z,68.40
2023-03-19T18:07:28.255Z,67.30
2023-03-19T18:09:56.911Z,67.40
2023-03-19T18:12:26.646Z,67.20
2023-03-19T18:14:55.074Z,68.20
2023-03-19T18:17:26.207Z,67.70
2023-03-19T18:19:58.217Z,67.80
2023-03-19T18:22:28.059Z,67.90
2023-03-19T18:24:58.341Z,67.90
2023-03-19T18:27:26.555Z,67.50
2023-03-19T18:29:55.229Z,67.90
2023-03-19T18:32:35.986Z,67.70
2023-03-19T18:35:05.001Z,67.50
2023-03-19T18:37:35.449Z,67.70
2023-03-19T18:40:05.751Z,67.80
2023-03-19T18:42:33.836Z,67.60
2023-03-19T18:45:06.602Z,67.90
2023-03-19T18:47:35.762Z,67.90
2023-03-19T18:50:11.018Z,67.80
2023-03-19T18:52:41.928Z,67.90
2023-03-19T18:55:13.021Z,68.00
2023-03-19T18:57:53.255Z,68.20
2023-03-19T19:00:27.052Z,68.10
2023-03-19T19:02:57.347Z,68.40
2023-03-19T19:05:31.654Z,68.40
2023-03-19T19:08:02.418Z,68.60
2023-03-19T19:10:34.873Z,69.00
2023-03-19T19:13:14.539Z,69.00
2023-03-19T19:15:42.781Z,69.40
2023-03-19T19:18:21.946Z,69.20
2023-03-19T19:20:56.002Z,69.20
2023-03-19T19:23:27.437Z,69.50
2023-03-19T19:25:57.186Z,69.40
2023-03-19T19:28:34.389Z,69.60
2023-03-19T19:31:03.693Z,69.60
2023-03-19T19:33:36.370Z,69.80
2023-03-19T19:36:04.767Z,69.80
2023-03-19T19:38:33.440Z,69.70
2023-03-19T19:41:03.132Z,70.00
2023-03-19T19:43:35.428Z,70.10
2023-03-19T19:46:04.735Z,70.20
2023-03-19T19:48:33.393Z,70.60
2023-03-19T19:51:01.740Z,70.70
2023-03-19T19:53:33.374Z,70.80
2023-03-19T19:56:07.840Z,70.40
2023-03-19T19:58:37.690Z,70.50
2023-03-19T20:01:30.521Z,70.40
2023-03-19T20:04:04.940Z,70.70
2023-03-19T20:06:34.180Z,70.90
2023-03-19T20:09:05.490Z,71.00
2023-03-19T20:11:34.589Z,71.00
2023-03-19T20:14:02.903Z,71.20
2023-03-19T20:16:31.077Z,71.70
2023-03-19T20:19:00.601Z,71.30
2023-03-19T20:21:30.527Z,71.40
2023-03-19T20:24:02.591Z,71.60
2023-03-19T20:26:31.168Z,71.60
2023-03-19T20:29:00.100Z,71.50
2023-03-19T20:31:34.266Z,71.70
2023-03-19T20:34:09.385Z,71.80
2023-03-19T20:36:40.820Z,72.00
2023-03-19T20:39:17.001Z,72.00
2023-03-19T20:41:51.356Z,72.00
2023-03-19T20:44:26.307Z,72.30
2023-03-19T20:47:00.592Z,72.50
2023-03-19T20:49:31.561Z,72.60
2023-03-19T20:52:02.798Z,72.70
2023-03-19T20:54:35.608Z,72.80
2023-03-19T20:57:04.617Z,73.00
2023-03-19T20:59:37.921Z,73.10
2023-03-19T21:02:17.388Z,73.30
2023-03-19T21:04:49.444Z,73.30
2023-03-19T21:07:27.177Z,73.60
2023-03-19T21:09:58.008Z,73.80
2023-03-19T21:12:32.955Z,73.80
2023-03-19T21:15:02.496Z,73.80
2023-03-19T21:17:30.941Z,74.10
2023-03-19T21:19:59.110Z,74.10
2023-03-19T21:22:30.236Z,74.30
2023-03-19T21:25:05.639Z,75.00
2023-03-19T21:27:38.210Z,74.50
2023-03-19T21:30:08.710Z,74.50
2023-03-19T21:32:40.358Z,74.50
2023-03-19T21:35:20.151Z,74.60
2023-03-19T21:37:53.034Z,74.60
2023-03-19T21:40:25.808Z,74.80
2023-03-19T21:42:55.338Z,74.40
2023-03-19T21:45:38.150Z,74.50
2023-03-19T21:48:25.419Z,74.80
2023-03-19T21:50:53.409Z,74.50
2023-03-19T21:53:21.758Z,74.60
2023-03-19T21:55:51.251Z,74.90
2023-03-19T21:58:25.725Z,75.10
2023-03-19T22:00:53.028Z,75.00
2023-03-19T22:03:21.988Z,75.60
2023-03-19T22:05:51.406Z,75.10
2023-03-19T22:08:22.846Z,75.00
2023-03-19T22:11:03.047Z,75.20
2023-03-19T22:13:35.475Z,75.20
2023-03-19T22:16:02.928Z,75.10
2023-03-19T22:18:30.423Z,75.00
2023-03-19T22:20:59.558Z,75.50
2023-03-19T22:23:27.530Z,75.30
2023-03-19T22:25:55.058Z,75.20
2023-03-19T22:28:25.177Z,75.30
2023-03-19T22:30:52.918Z,75.30
2023-03-19T22:33:22.646Z,75.40
2023-03-19T22:35:51.279Z,75.50
2023-03-19T22:38:20.498Z,75.50
2023-03-19T22:40:56.790Z,75.70
2023-03-19T22:43:50.536Z,75.50
2023-03-19T22:46:21.843Z,75.80
2023-03-19T22:48:52.823Z,75.90
2023-03-19T22:51:25.843Z,76.10
2023-03-19T22:53:54.366Z,76.10
2023-03-19T22:56:22.440Z,76.50
2023-03-19T22:58:50.866Z,76.30
2023-03-19T23:01:22.617Z,76.50
2023-03-19T23:03:51.146Z,77.00
2023-03-19T23:06:30.876Z,76.50
2023-03-19T23:08:58.916Z,76.50
2023-03-19T23:11:27.264Z,76.70
2023-03-19T23:13:56.554Z,76.50
2023-03-19T23:16:25.396Z,76.60
2023-03-19T23:21:23.882Z,76.90
2023-03-19T23:23:57.007Z,76.70
2023-03-19T23:26:26.159Z,76.80
2023-03-19T23:28:54.695Z,77.20
2023-03-19T23:31:22.201Z,77.10
2023-03-19T23:33:50.098Z,77.30
2023-03-19T23:36:18.346Z,77.30
2023-03-19T23:38:46.879Z,77.00
2023-03-19T23:41:28.119Z,77.30
2023-03-19T23:44:01.722Z,77.50
2023-03-19T23:46:35.561Z,77.40
2023-03-19T23:49:03.260Z,77.60
2023-03-19T23:51:30.850Z,77.70
2023-03-19T23:53:58.141Z,78.00
2023-03-19T23:56:27.306Z,77.90
